createdAt,value
2022-10-02T00:01:51.491Z,39.53
2022-10-02T00:04:25.847Z,36.47
2022-10-02T00:06:59.454Z,29.65
2022-10-02T00:09:33.114Z,22.83
2022-10-02T00:12:02.060Z,24.80
2022-10-02T00:14:36.503Z,29.48
2022-10-02T00:17:07.719Z,21.85
2022-10-02T00:19:35.586Z,25.63
2022-10-02T00:22:23.397Z,33.92
2022-10-02T00:24:58.819Z,33.35
2022-10-02T00:27:41.411Z,38.67
2022-10-02T00:30:12.633Z,34.78
2022-10-02T00:32:54.679Z,35.83
2022-10-02T00:35:57.366Z,35.50
2022-10-02T00:38:37.238Z,38.88
2022-10-02T00:41:22.005Z,31.80
2022-10-02T00:44:07.105Z,45.17
2022-10-02T00:46:46.575Z,37.67
2022-10-02T00:49:33.322Z,31.02
2022-10-02T00:52:22.072Z,34.05
2022-10-02T00:55:04.608Z,27.77
2022-10-02T00:57:49.448Z,33.17
2022-10-02T01:00:19.711Z,30.90
2022-10-02T01:03:09.896Z,33.00
2022-10-02T01:05:40.124Z,37.03
2022-10-02T01:08:09.305Z,29.25
2022-10-02T01:10:39.219Z,32.63
2022-10-02T01:13:07.899Z,26.40
2022-10-02T01:15:39.067Z,27.77
2022-10-02T01:18:08.818Z,25.67
2022-10-02T01:20:41.773Z,27.02
2022-10-02T01:23:24.590Z,27.17
2022-10-02T01:25:54.072Z,32.85
2022-10-02T01:28:23.269Z,30.13
2022-10-02T01:30:56.016Z,38.85
2022-10-02T01:33:24.242Z,32.33
2022-10-02T01:35:52.499Z,29.70
2022-10-02T01:38:23.840Z,30.77
2022-10-02T01:40:53.089Z,33.30
2022-10-02T01:43:23.950Z,34.05
2022-10-02T01:46:28.895Z,36.10
2022-10-02T01:49:06.927Z,32.92
2022-10-02T01:51:50.229Z,26.20
2022-10-02T01:54:26.238Z,26.65
2022-10-02T01:57:07.632Z,31.05
2022-10-02T01:59:48.709Z,35.67
2022-10-02T02:02:24.465Z,29.35
2022-10-02T02:04:59.418Z,29.02
2022-10-02T02:07:35.692Z,28.50
2022-10-02T02:10:14.183Z,27.83
2022-10-02T02:12:48.553Z,28.13
2022-10-02T02:15:21.694Z,31.60
2022-10-02T02:17:55.790Z,28.67
2022-10-02T02:20:29.590Z,32.50
2022-10-02T02:23:05.298Z,37.55
2022-10-02T02:25:37.926Z,33.67
2022-10-02T02:28:10.593Z,46.45
2022-10-02T02:30:41.321Z,40.90
2022-10-02T02:33:16.469Z,40.55
2022-10-02T02:35:48.092Z,32.15
2022-10-02T02:38:23.172Z,40.67
2022-10-02T02:40:52.951Z,33.63
2022-10-02T02:43:27.061Z,36.30
2022-10-02T02:45:58.693Z,36.95
2022-10-02T02:48:30.792Z,39.42
2022-10-02T02:51:03.723Z,35.30
2022-10-02T02:53:36.497Z,34.63
2022-10-02T02:56:07.411Z,33.28
2022-10-02T02:58:41.747Z,35.97
2022-10-02T03:01:09.843Z,31.77
2022-10-02T03:03:37.807Z,30.63
2022-10-02T03:06:25.543Z,25.67
2022-10-02T03:08:54.837Z,31.25
2022-10-02T03:11:34.357Z,30.40
2022-10-02T03:14:11.909Z,25.67
2022-10-02T03:16:49.114Z,22.45
2022-10-02T03:19:32.624Z,24.27
2022-10-02T03:22:11.818Z,23.15
2022-10-02T03:24:48.083Z,25.40
2022-10-02T03:27:21.963Z,23.23
2022-10-02T03:29:58.176Z,26.38
2022-10-02T03:32:28.056Z,21.23
2022-10-02T03:34:57.189Z,20.50
2022-10-02T03:37:26.506Z,21.83
2022-10-02T03:39:54.393Z,22.17
2022-10-02T03:42:28.071Z,21.45
2022-10-02T03:44:57.304Z,17.98
2022-10-02T03:47:25.161Z,20.23
2022-10-02T03:49:53.075Z,21.80
2022-10-02T03:52:23.464Z,21.40
2022-10-02T03:57:25.663Z,21.55
2022-10-02T04:00:02.856Z,20.60
2022-10-02T04:02:36.230Z,27.88
2022-10-02T04:05:15.366Z,26.30
2022-10-02T04:07:52.414Z,22.20
2022-10-02T04:10:33.644Z,24.98
2022-10-02T04:13:12.988Z,21.92
2022-10-02T04:15:54.879Z,19.45
2022-10-02T04:18:27.644Z,13.63
2022-10-02T04:20:59.401Z,15.80
2022-10-02T04:23:32.533Z,19.75
2022-10-02T04:26:04.819Z,15.10
2022-10-02T04:28:38.606Z,12.98
2022-10-02T04:31:13.194Z,14.23
2022-10-02T04:33:41.669Z,11.77
2022-10-02T04:36:28.183Z,14.35
2022-10-02T04:39:28.519Z,15.77
2022-10-02T04:42:10.405Z,18.33
2022-10-02T04:44:54.755Z,14.00
2022-10-02T04:47:47.261Z,14.57
2022-10-02T04:50:32.762Z,12.73
2022-10-02T04:53:17.340Z,13.77
2022-10-02T04:56:03.651Z,13.60
2022-10-02T04:58:47.065Z,17.98
2022-10-02T05:01:27.359Z,16.05
2022-10-02T05:04:14.191Z,15.90
2022-10-02T05:07:05.651Z,17.88
2022-10-02T05:09:40.217Z,18.80
2022-10-02T05:12:31.748Z,23.58
2022-10-02T05:15:41.895Z,24.67
2022-10-02T05:18:30.656Z,21.27
2022-10-02T05:21:14.233Z,26.00
2022-10-02T05:23:57.210Z,24.13
2022-10-02T05:26:36.612Z,22.55
2022-10-02T05:29:17.000Z,36.40
2022-10-02T05:32:04.050Z,34.55
2022-10-02T05:34:49.574Z,32.75
2022-10-02T05:37:43.850Z,29.45
2022-10-02T05:40:19.269Z,32.05
2022-10-02T05:42:54.188Z,33.97
2022-10-02T05:45:28.382Z,39.78
2022-10-02T05:48:04.586Z,16.80
2022-10-02T05:50:36.551Z,18.23
2022-10-02T05:53:12.157Z,19.25
2022-10-02T05:55:47.971Z,16.35
2022-10-02T05:58:22.324Z,19.10
2022-10-02T06:00:56.299Z,17.20
2022-10-02T06:03:33.402Z,14.60
2022-10-02T06:06:09.583Z,17.00
2022-10-02T06:08:43.738Z,24.05
2022-10-02T06:11:17.081Z,13.90
2022-10-02T06:13:52.764Z,28.10
2022-10-02T06:16:25.641Z,21.92
2022-10-02T06:18:58.102Z,28.05
2022-10-02T06:21:33.345Z,15.85
2022-10-02T06:24:12.140Z,20.45
2022-10-02T06:26:46.820Z,18.08
2022-10-02T06:29:26.860Z,16.05
2022-10-02T06:34:30.039Z,15.30
2022-10-02T06:37:15.596Z,14.63
2022-10-02T06:40:04.574Z,14.65
2022-10-02T06:42:43.240Z,15.00
2022-10-02T06:45:23.951Z,16.17
2022-10-02T06:48:03.044Z,21.75
2022-10-02T06:50:41.123Z,16.10
2022-10-02T06:53:21.196Z,16.95
2022-10-02T06:56:01.350Z,20.10
2022-10-02T06:58:45.660Z,14.45
2022-10-02T07:01:25.068Z,10.65
2022-10-02T07:04:09.707Z,10.38
2022-10-02T07:06:47.454Z,9.50
2022-10-02T07:09:55.889Z,9.38
2022-10-02T07:13:06.251Z,10.70
2022-10-02T07:15:58.129Z,9.30
2022-10-02T07:18:42.765Z,12.05
2022-10-02T07:21:20.229Z,12.23
2022-10-02T07:24:00.067Z,15.45
2022-10-02T07:26:47.995Z,12.95
2022-10-02T07:29:32.427Z,17.40
2022-10-02T07:32:35.571Z,18.63
2022-10-02T07:35:18.115Z,20.50
2022-10-02T07:37:58.791Z,21.63
2022-10-02T07:40:37.764Z,24.08
2022-10-02T07:43:23.320Z,31.90
2022-10-02T07:45:57.678Z,37.45
2022-10-02T07:48:52.964Z,33.75
2022-10-02T07:51:50.009Z,45.17
2022-10-02T07:54:43.863Z,50.67
2022-10-02T07:57:33.991Z,62.55
2022-10-02T08:00:06.505Z,63.53
2022-10-02T08:02:40.723Z,75.65
2022-10-02T08:05:19.680Z,83.25
2022-10-02T08:07:50.966Z,94.10
2022-10-02T08:10:25.835Z,86.97
2022-10-02T08:13:04.276Z,78.50
2022-10-02T08:15:38.637Z,81.47
2022-10-02T08:18:33.582Z,82.43
2022-10-02T08:21:05.562Z,76.82
2022-10-02T08:23:40.463Z,69.18
2022-10-02T08:26:13.820Z,71.60
2022-10-02T08:28:48.018Z,65.10
2022-10-02T08:31:16.284Z,57.90
2022-10-02T08:33:44.272Z,58.92
2022-10-02T08:36:38.879Z,58.95
2022-10-02T08:39:22.081Z,58.30
2022-10-02T08:42:26.037Z,45.90
2022-10-02T08:45:22.816Z,52.33
2022-10-02T08:48:35.389Z,57.00
2022-10-02T08:51:26.604Z,55.10
2022-10-02T08:54:24.469Z,50.80
2022-10-02T08:57:07.863Z,50.00
2022-10-02T09:00:10.423Z,48.38
2022-10-02T09:03:11.297Z,48.13
2022-10-02T09:06:20.554Z,50.70
2022-10-02T09:09:24.555Z,43.15
2022-10-02T09:14:34.835Z,42.47
2022-10-02T09:17:16.492Z,41.08
2022-10-02T09:19:57.091Z,45.38
2022-10-02T09:22:58.950Z,46.40
2022-10-02T09:25:37.859Z,41.47
2022-10-02T09:28:52.488Z,38.58
2022-10-02T09:31:55.825Z,42.60
2022-10-02T09:35:14.232Z,41.10
2022-10-02T09:38:24.568Z,36.95
2022-10-02T09:41:33.866Z,36.33
2022-10-02T09:44:34.216Z,35.22
2022-10-02T09:48:05.142Z,38.70
2022-10-02T09:51:09.461Z,31.10
2022-10-02T09:54:10.147Z,31.58
2022-10-02T09:57:07.008Z,30.98
2022-10-02T10:00:03.948Z,26.60
2022-10-02T10:03:10.413Z,31.35
2022-10-02T10:06:00.411Z,34.92
2022-10-02T10:08:52.752Z,29.65
2022-10-02T10:11:47.800Z,27.80
2022-10-02T10:15:08.629Z,31.65
2022-10-02T10:18:18.265Z,30.80
2022-10-02T10:21:21.529Z,28.65
2022-10-02T10:24:24.324Z,33.88
2022-10-02T10:27:11.756Z,29.35
2022-10-02T10:30:13.271Z,30.35
2022-10-02T10:33:08.242Z,27.13
2022-10-02T10:36:00.021Z,26.27
2022-10-02T10:38:46.347Z,25.77
2022-10-02T10:41:47.395Z,25.70
2022-10-02T10:44:38.347Z,25.83
2022-10-02T10:47:24.828Z,23.33
2022-10-02T10:50:25.069Z,22.17
2022-10-02T10:53:30.525Z,20.70
2022-10-02T10:56:22.013Z,20.92
2022-10-02T10:59:09.795Z,18.70
2022-10-02T11:01:49.887Z,22.95
2022-10-02T11:04:39.357Z,22.35
2022-10-02T11:07:35.134Z,24.50
2022-10-02T11:10:22.786Z,23.73
2022-10-02T11:13:09.868Z,27.33
2022-10-02T11:16:09.130Z,25.23
2022-10-02T11:18:48.955Z,21.85
2022-10-02T11:21:35.235Z,21.77
2022-10-02T11:24:22.950Z,29.40
2022-10-02T11:27:04.959Z,22.95
2022-10-02T11:29:56.566Z,27.40
2022-10-02T11:32:51.425Z,20.23
2022-10-02T11:35:26.039Z,22.88
2022-10-02T11:38:16.203Z,19.55
2022-10-02T11:41:07.456Z,24.67
2022-10-02T11:44:01.373Z,21.92
2022-10-02T11:47:12.021Z,25.50
2022-10-02T11:52:47.994Z,22.63
2022-10-02T11:55:30.207Z,21.83
2022-10-02T11:58:12.353Z,25.50
2022-10-02T12:01:07.408Z,22.85
2022-10-02T12:03:50.289Z,24.83
2022-10-02T12:06:33.663Z,20.30
2022-10-02T12:09:10.087Z,22.17
2022-10-02T12:11:43.383Z,25.23
2022-10-02T12:14:21.387Z,26.02
2022-10-02T12:17:12.006Z,21.00
2022-10-02T12:22:58.386Z,21.08
2022-10-02T12:25:51.197Z,19.00
2022-10-02T12:28:29.648Z,20.90
2022-10-02T12:31:06.979Z,21.27
2022-10-02T12:33:44.136Z,19.20
2022-10-02T12:36:34.877Z,19.52
2022-10-02T12:39:21.293Z,20.42
2022-10-02T12:42:04.908Z,19.85
2022-10-02T12:44:47.732Z,17.48
2022-10-02T12:47:42.187Z,20.58
2022-10-02T12:50:24.471Z,20.05
2022-10-02T12:53:29.153Z,21.00
2022-10-02T12:56:16.645Z,17.23
2022-10-02T12:58:57.136Z,18.17
2022-10-02T13:04:38.149Z,18.38
2022-10-02T13:07:48.810Z,15.20
2022-10-02T13:13:05.510Z,17.33
2022-10-02T13:15:43.154Z,18.83
2022-10-02T13:18:28.781Z,19.50
2022-10-02T13:21:06.162Z,17.77
2022-10-02T13:23:45.450Z,20.13
2022-10-02T13:26:23.612Z,18.70
2022-10-02T13:29:24.348Z,18.88
2022-10-02T13:32:22.943Z,16.73
2022-10-02T13:35:04.420Z,17.52
2022-10-02T13:37:45.300Z,15.82
2022-10-02T13:40:26.115Z,15.05
2022-10-02T13:43:26.948Z,19.27
2022-10-02T13:46:04.913Z,14.77
2022-10-02T13:48:45.822Z,17.08
2022-10-02T13:51:23.078Z,16.83
2022-10-02T13:54:29.613Z,15.75
2022-10-02T13:57:06.813Z,13.80
2022-10-02T14:00:02.165Z,16.30
2022-10-02T14:02:46.733Z,13.02
2022-10-02T14:05:28.564Z,14.90
2022-10-02T14:08:13.876Z,14.00
2022-10-02T14:10:53.487Z,15.38
2022-10-02T14:13:38.156Z,18.40
2022-10-02T14:16:22.023Z,15.48
2022-10-02T14:19:11.218Z,14.25
2022-10-02T14:21:46.331Z,17.52
2022-10-02T14:24:54.655Z,18.17
2022-10-02T14:28:06.997Z,16.15
2022-10-02T14:30:48.527Z,18.88
2022-10-02T14:33:27.276Z,18.70
2022-10-02T14:36:07.219Z,19.83
2022-10-02T14:38:49.510Z,15.13
2022-10-02T14:41:50.479Z,15.88
2022-10-02T14:44:35.965Z,14.13
2022-10-02T14:47:22.420Z,19.25
2022-10-02T14:50:11.903Z,14.05
2022-10-02T14:52:53.601Z,17.58
2022-10-02T14:55:37.398Z,17.98
2022-10-02T14:58:18.180Z,19.23
2022-10-02T15:00:58.374Z,15.82
2022-10-02T15:03:48.769Z,18.85
2022-10-02T15:06:27.185Z,17.05
2022-10-02T15:09:02.188Z,19.13
2022-10-02T15:11:54.552Z,17.95
2022-10-02T15:14:29.754Z,17.17
2022-10-02T15:17:19.543Z,22.25
2022-10-02T15:19:52.097Z,18.90
2022-10-02T15:22:25.618Z,23.50
2022-10-02T15:24:59.088Z,19.77
2022-10-02T15:27:32.720Z,16.67
2022-10-02T15:30:13.193Z,20.13
2022-10-02T15:35:40.895Z,23.50
2022-10-02T15:38:25.188Z,21.45
2022-10-02T15:41:19.480Z,19.90
2022-10-02T15:43:57.351Z,21.25
2022-10-02T15:46:35.466Z,22.77
2022-10-02T15:49:12.909Z,25.55
2022-10-02T15:51:59.543Z,23.48
2022-10-02T15:54:38.807Z,30.40
2022-10-02T15:57:22.453Z,26.27
2022-10-02T16:00:11.154Z,31.35
2022-10-02T16:03:01.094Z,30.02
2022-10-02T16:05:50.329Z,29.52
2022-10-02T16:08:36.802Z,28.17
2022-10-02T16:11:21.129Z,27.13
2022-10-02T16:14:00.403Z,28.70
2022-10-02T16:17:03.003Z,26.00
2022-10-02T16:19:49.228Z,28.38
2022-10-02T16:22:33.481Z,26.67
2022-10-02T16:25:21.077Z,28.05
2022-10-02T16:27:54.236Z,28.92
2022-10-02T16:30:25.044Z,25.38
2022-10-02T16:33:11.235Z,27.58
2022-10-02T16:35:59.611Z,35.15
2022-10-02T16:38:42.673Z,33.80
2022-10-02T16:41:37.061Z,28.42
2022-10-02T16:44:24.428Z,33.53
2022-10-02T16:46:59.884Z,29.20
2022-10-02T16:49:34.723Z,30.13
2022-10-02T16:52:11.643Z,28.75
2022-10-02T16:54:46.070Z,32.80
2022-10-02T16:57:29.350Z,32.88
2022-10-02T17:00:06.172Z,30.77
2022-10-02T17:02:46.115Z,34.50
2022-10-02T17:05:24.827Z,32.72
2022-10-02T17:08:02.505Z,41.83
2022-10-02T17:10:39.537Z,34.97
2022-10-02T17:13:28.930Z,39.85
2022-10-02T17:16:06.391Z,32.50
2022-10-02T17:18:43.530Z,31.52
2022-10-02T17:21:17.135Z,37.72
2022-10-02T17:23:54.662Z,37.55
2022-10-02T17:26:33.451Z,32.38
2022-10-02T17:29:08.626Z,35.38
2022-10-02T17:31:46.193Z,31.85
2022-10-02T17:34:21.274Z,34.50
2022-10-02T17:36:57.994Z,35.97
2022-10-02T17:39:52.428Z,31.38
2022-10-02T17:42:30.544Z,35.67
2022-10-02T17:45:09.490Z,34.38
2022-10-02T17:47:54.183Z,44.03
2022-10-02T17:50:39.281Z,36.03
2022-10-02T17:53:41.272Z,32.72
2022-10-02T17:56:31.197Z,30.30
2022-10-02T17:59:21.538Z,30.92
2022-10-02T18:02:02.185Z,36.03
2022-10-02T18:04:41.860Z,31.00
2022-10-02T18:07:41.714Z,27.50
2022-10-02T18:10:25.834Z,36.55
2022-10-02T18:13:07.807Z,35.70
2022-10-02T18:16:02.214Z,33.95
2022-10-02T18:18:39.008Z,29.08
2022-10-02T18:21:28.126Z,31.75
2022-10-02T18:24:21.198Z,27.75
2022-10-02T18:27:14.464Z,29.23
2022-10-02T18:29:59.695Z,33.15
2022-10-02T18:32:48.622Z,30.85
2022-10-02T18:35:33.117Z,35.53
2022-10-02T18:38:13.539Z,28.15
2022-10-02T18:43:47.781Z,29.23
2022-10-02T18:46:27.490Z,34.70
2022-10-02T18:49:08.617Z,36.25
2022-10-02T18:52:16.739Z,31.65
2022-10-02T18:54:55.963Z,37.70
2022-10-02T18:57:47.825Z,31.83
2022-10-02T19:00:21.490Z,35.58
2022-10-02T19:03:19.961Z,39.13
2022-10-02T19:05:52.049Z,39.65
2022-10-02T19:08:25.830Z,34.47
2022-10-02T19:10:54.093Z,39.15
2022-10-02T19:13:27.421Z,37.03
2022-10-02T19:15:58.368Z,43.53
2022-10-02T19:18:27.877Z,55.22
2022-10-02T19:21:00.264Z,58.22
2022-10-02T19:23:32.602Z,133.85
2022-10-02T19:26:06.006Z,106.55
2022-10-02T19:28:45.546Z,90.38
2022-10-02T19:31:14.218Z,55.63
2022-10-02T19:33:49.895Z,46.38
2022-10-02T19:36:21.178Z,47.05
2022-10-02T19:38:55.635Z,35.88
2022-10-02T19:41:24.291Z,45.38
2022-10-02T19:43:59.008Z,46.60
2022-10-02T19:46:35.669Z,40.22
2022-10-02T19:49:04.275Z,47.75
2022-10-02T19:51:43.340Z,43.63
2022-10-02T19:54:17.381Z,46.20
2022-10-02T19:56:46.651Z,44.13
2022-10-02T19:59:19.612Z,42.85
2022-10-02T20:01:51.720Z,48.78
2022-10-02T20:04:21.817Z,39.83
2022-10-02T20:06:53.137Z,56.33
2022-10-02T20:09:26.402Z,47.42
2022-10-02T20:11:58.822Z,48.55
2022-10-02T20:14:32.415Z,51.97
2022-10-02T20:17:11.125Z,50.92
2022-10-02T20:19:45.281Z,49.03
2022-10-02T20:22:19.134Z,48.97
2022-10-02T20:24:52.005Z,53.03
2022-10-02T20:27:25.635Z,51.10
2022-10-02T20:30:00.992Z,68.80
2022-10-02T20:32:33.270Z,56.38
2022-10-02T20:35:08.414Z,46.42
2022-10-02T20:37:37.503Z,62.10
2022-10-02T20:40:13.920Z,49.78
2022-10-02T20:42:48.523Z,49.97
2022-10-02T20:45:18.228Z,56.10
2022-10-02T20:48:35.781Z,45.58
2022-10-02T20:51:18.351Z,52.05
2022-10-02T20:54:18.630Z,51.42
2022-10-02T20:57:37.968Z,50.95
2022-10-02T21:00:18.763Z,55.47
2022-10-02T21:03:11.979Z,83.18
2022-10-02T21:06:18.533Z,53.67
2022-10-02T21:09:12.567Z,62.83
2022-10-02T21:12:03.141Z,58.92
2022-10-02T21:14:53.905Z,62.30
2022-10-02T21:17:57.066Z,64.55
2022-10-02T21:21:13.474Z,70.85
2022-10-02T21:24:21.840Z,54.70
2022-10-02T21:27:14.618Z,63.22
2022-10-02T21:30:05.563Z,54.55
2022-10-02T21:33:03.292Z,59.40
2022-10-02T21:35:41.974Z,50.58
2022-10-02T21:38:58.842Z,50.90
2022-10-02T21:41:55.194Z,49.28
2022-10-02T21:45:06.196Z,60.10
2022-10-02T21:48:13.911Z,59.88
2022-10-02T21:51:21.390Z,47.92
2022-10-02T21:54:31.190Z,49.75
2022-10-02T21:57:33.455Z,48.67
2022-10-02T22:00:14.302Z,53.60
2022-10-02T22:03:12.381Z,53.42
2022-10-02T22:06:16.559Z,56.47
2022-10-02T22:08:56.948Z,46.80
2022-10-02T22:11:34.433Z,49.78
2022-10-02T22:14:10.123Z,51.30
2022-10-02T22:16:47.391Z,54.97
2022-10-02T22:19:32.707Z,47.40
2022-10-02T22:22:15.471Z,47.47
2022-10-02T22:25:02.900Z,39.17
2022-10-02T22:27:51.124Z,50.00
2022-10-02T22:30:25.388Z,48.05
2022-10-02T22:33:13.555Z,46.85
2022-10-02T22:36:20.417Z,43.80
2022-10-02T22:38:54.883Z,49.80
2022-10-02T22:41:29.435Z,42.75
2022-10-02T22:44:01.904Z,45.35
2022-10-02T22:46:41.130Z,48.30
2022-10-02T22:49:19.504Z,50.77
2022-10-02T22:51:57.975Z,42.15
2022-10-02T22:54:36.664Z,42.33
2022-10-02T22:57:16.822Z,48.25
2022-10-02T22:59:52.406Z,48.08
2022-10-02T23:02:26.078Z,45.35
2022-10-02T23:05:01.551Z,52.00
2022-10-02T23:07:35.744Z,57.35
2022-10-02T23:10:18.809Z,118.32
2022-10-02T23:12:58.677Z,40.05
2022-10-02T23:15:35.872Z,52.63
2022-10-02T23:18:07.287Z,38.58
2022-10-02T23:20:39.220Z,54.97
2022-10-02T23:23:16.617Z,59.72
2022-10-02T23:25:53.653Z,52.45
2022-10-02T23:28:27.663Z,50.58
2022-10-02T23:31:06.374Z,57.55
2022-10-02T23:33:46.130Z,46.17
2022-10-02T23:36:24.222Z,33.85
2022-10-02T23:39:00.136Z,41.60
2022-10-02T23:41:46.475Z,42.10
2022-10-02T23:44:25.627Z,34.40
2022-10-02T23:47:10.128Z,42.45
2022-10-02T23:49:40.819Z,36.90
2022-10-02T23:52:41.206Z,35.70
2022-10-02T23:55:44.241Z,30.08
2022-10-02T23:58:43.901Z,33.78
